sensor_id;sensor_type;location;lat;lon;timestamp;temperature;humidity
42261;DHT22;27926;48.062;7.474;2022-07-06T00:01:20;16.70;99.90
42261;DHT22;27926;48.062;7.474;2022-07-06T00:03:45;16.60;99.90
42261;DHT22;27926;48.062;7.474;2022-07-06T00:06:10;16.60;99.90
42261;DHT22;27926;48.062;7.474;2022-07-06T00:08:34;16.50;99.90
42261;DHT22;27926;48.062;7.474;2022-07-06T00:10:59;16.40;99.90
42261;DHT22;27926;48.062;7.474;2022-07-06T00:13:24;16.30;99.90
42261;DHT22;27926;48.062;7.474;2022-07-06T00:15:49;16.20;99.90
42261;DHT22;27926;48.062;7.474;2022-07-06T00:18:13;16.20;99.90
42261;DHT22;27926;48.062;7.474;2022-07-06T00:20:38;16.20;99.90
42261;DHT22;27926;48.062;7.474;2022-07-06T00:23:03;16.20;99.90
42261;DHT22;27926;48.062;7.474;2022-07-06T00:25:27;16.20;99.90
42261;DHT22;27926;48.062;7.474;2022-07-06T00:27:52;16.20;99.90
42261;DHT22;27926;48.062;7.474;2022-07-06T00:30:16;16.20;99.90
42261;DHT22;27926;48.062;7.474;2022-07-06T00:32:41;16.30;99.90
42261;DHT22;27926;48.062;7.474;2022-07-06T00:35:06;16.30;99.90
42261;DHT22;27926;48.062;7.474;2022-07-06T00:37:31;16.20;99.90
42261;DHT22;27926;48.062;7.474;2022-07-06T00:39:55;16.20;99.90
42261;DHT22;27926;48.062;7.474;2022-07-06T00:42:20;16.20;99.90
42261;DHT22;27926;48.062;7.474;2022-07-06T00:44:44;16.20;99.90
42261;DHT22;27926;48.062;7.474;2022-07-06T00:47:09;16.20;99.90
42261;DHT22;27926;48.062;7.474;2022-07-06T00:49:34;16.20;99.90
42261;DHT22;27926;48.062;7.474;2022-07-06T00:52:17;16.20;99.90
42261;DHT22;27926;48.062;7.474;2022-07-06T00:54:43;16.10;99.90
42261;DHT22;27926;48.062;7.474;2022-07-06T00:57:07;16.10;99.90
42261;DHT22;27926;48.062;7.474;2022-07-06T00:59:35;16.00;99.90
42261;DHT22;27926;48.062;7.474;2022-07-06T01:02:00;15.80;99.90
42261;DHT22;27926;48.062;7.474;2022-07-06T01:04:24;15.80;99.90
42261;DHT22;27926;48.062;7.474;2022-07-06T01:06:49;15.80;99.90
42261;DHT22;27926;48.062;7.474;2022-07-06T01:09:14;15.80;99.90
42261;DHT22;27926;48.062;7.474;2022-07-06T01:11:39;15.80;99.90
42261;DHT22;27926;48.062;7.474;2022-07-06T01:14:04;15.80;99.90
42261;DHT22;27926;48.062;7.474;2022-07-06T01:16:29;15.70;99.90
42261;DHT22;27926;48.062;7.474;2022-07-06T01:18:54;15.70;99.90
42261;DHT22;27926;48.062;7.474;2022-07-06T01:21:19;15.70;99.90
42261;DHT22;27926;48.062;7.474;2022-07-06T01:23:45;15.70;99.90
42261;DHT22;27926;48.062;7.474;2022-07-06T01:26:13;15.70;99.90
42261;DHT22;27926;48.062;7.474;2022-07-06T01:28:38;15.70;99.90
42261;DHT22;27926;48.062;7.474;2022-07-06T01:31:03;15.70;99.90
42261;DHT22;27926;48.062;7.474;2022-07-06T01:33:27;15.60;99.90
42261;DHT22;27926;48.062;7.474;2022-07-06T01:35:52;15.60;99.90
42261;DHT22;27926;48.062;7.474;2022-07-06T01:38:16;15.50;99.90
42261;DHT22;27926;48.062;7.474;2022-07-06T01:40:41;15.50;99.90
42261;DHT22;27926;48.062;7.474;2022-07-06T01:43:06;15.50;99.90
42261;DHT22;27926;48.062;7.474;2022-07-06T01:45:31;15.50;99.90
42261;DHT22;27926;48.062;7.474;2022-07-06T01:47:56;15.40;99.90
42261;DHT22;27926;48.062;7.474;2022-07-06T01:50:21;15.30;99.90
42261;DHT22;27926;48.062;7.474;2022-07-06T01:52:46;15.30;99.90
42261;DHT22;27926;48.062;7.474;2022-07-06T01:55:10;15.20;99.90
42261;DHT22;27926;48.062;7.474;2022-07-06T01:57:35;15.20;99.90
42261;DHT22;27926;48.062;7.474;2022-07-06T01:59:59;15.20;99.90
42261;DHT22;27926;48.062;7.474;2022-07-06T02:02:24;15.10;99.90
42261;DHT22;27926;48.062;7.474;2022-07-06T02:04:49;15.10;99.90
42261;DHT22;27926;48.062;7.474;2022-07-06T02:07:13;15.00;99.90
42261;DHT22;27926;48.062;7.474;2022-07-06T02:09:38;15.00;99.90
42261;DHT22;27926;48.062;7.474;2022-07-06T02:12:03;14.90;99.90
42261;DHT22;27926;48.062;7.474;2022-07-06T02:14:27;14.90;99.90
42261;DHT22;27926;48.062;7.474;2022-07-06T02:16:52;14.90;99.90
42261;DHT22;27926;48.062;7.474;2022-07-06T02:19:17;14.80;99.90
42261;DHT22;27926;48.062;7.474;2022-07-06T02:21:41;14.80;99.90
42261;DHT22;27926;48.062;7.474;2022-07-06T02:24:06;14.80;99.90
42261;DHT22;27926;48.062;7.474;2022-07-06T02:26:31;14.80;99.90
42261;DHT22;27926;48.062;7.474;2022-07-06T02:28:55;14.70;99.90
42261;DHT22;27926;48.062;7.474;2022-07-06T02:31:20;14.70;99.90
42261;DHT22;27926;48.062;7.474;2022-07-06T02:33:45;14.70;99.90
42261;DHT22;27926;48.062;7.474;2022-07-06T02:36:09;14.70;99.90
42261;DHT22;27926;48.062;7.474;2022-07-06T02:38:34;14.60;99.90
42261;DHT22;27926;48.062;7.474;2022-07-06T02:40:59;14.60;99.90
42261;DHT22;27926;48.062;7.474;2022-07-06T02:43:24;14.50;99.90
42261;DHT22;27926;48.062;7.474;2022-07-06T02:45:49;14.50;99.90
42261;DHT22;27926;48.062;7.474;2022-07-06T02:48:13;14.40;99.90
42261;DHT22;27926;48.062;7.474;2022-07-06T02:50:38;14.40;99.90
42261;DHT22;27926;48.062;7.474;2022-07-06T02:53:02;14.40;99.90
42261;DHT22;27926;48.062;7.474;2022-07-06T02:55:27;14.40;99.90
42261;DHT22;27926;48.062;7.474;2022-07-06T02:57:52;14.30;99.90
42261;DHT22;27926;48.062;7.474;2022-07-06T03:00:16;14.30;99.90
42261;DHT22;27926;48.062;7.474;2022-07-06T03:02:41;14.30;99.90
42261;DHT22;27926;48.062;7.474;2022-07-06T03:05:06;14.30;99.90
42261;DHT22;27926;48.062;7.474;2022-07-06T03:07:31;14.30;99.90
42261;DHT22;27926;48.062;7.474;2022-07-06T03:09:56;14.30;99.90
42261;DHT22;27926;48.062;7.474;2022-07-06T03:12:20;14.30;99.90
42261;DHT22;27926;48.062;7.474;2022-07-06T03:14:45;14.20;99.90
42261;DHT22;27926;48.062;7.474;2022-07-06T03:17:10;14.20;99.90
42261;DHT22;27926;48.062;7.474;2022-07-06T03:19:35;14.20;99.90
42261;DHT22;27926;48.062;7.474;2022-07-06T03:21:59;14.20;99.90
42261;DHT22;27926;48.062;7.474;2022-07-06T03:24:24;14.20;99.90
42261;DHT22;27926;48.062;7.474;2022-07-06T03:26:49;14.20;99.90
42261;DHT22;27926;48.062;7.474;2022-07-06T03:29:13;14.20;99.90
42261;DHT22;27926;48.062;7.474;2022-07-06T03:31:38;14.20;99.90
42261;DHT22;27926;48.062;7.474;2022-07-06T03:34:02;14.20;99.90
42261;DHT22;27926;48.062;7.474;2022-07-06T03:36:27;14.20;99.90
42261;DHT22;27926;48.062;7.474;2022-07-06T03:38:52;14.70;99.90
42261;DHT22;27926;48.062;7.474;2022-07-06T03:41:16;14.30;99.90
42261;DHT22;27926;48.062;7.474;2022-07-06T03:43:41;14.30;99.90
42261;DHT22;27926;48.062;7.474;2022-07-06T03:46:05;14.40;99.90
42261;DHT22;27926;48.062;7.474;2022-07-06T03:48:30;14.50;99.90
42261;DHT22;27926;48.062;7.474;2022-07-06T03:50:55;14.60;99.90
42261;DHT22;27926;48.062;7.474;2022-07-06T03:53:19;14.60;99.90
42261;DHT22;27926;48.062;7.474;2022-07-06T03:55:44;14.70;99.90
42261;DHT22;27926;48.062;7.474;2022-07-06T03:58:29;14.80;99.90
42261;DHT22;27926;48.062;7.474;2022-07-06T04:00:53;14.80;99.90
42261;DHT22;27926;48.062;7.474;2022-07-06T04:03:18;14.90;99.90
42261;DHT22;27926;48.062;7.474;2022-07-06T04:05:42;14.90;99.90
42261;DHT22;27926;48.062;7.474;2022-07-06T04:08:07;14.90;99.90
42261;DHT22;27926;48.062;7.474;2022-07-06T04:10:32;14.90;99.90
42261;DHT22;27926;48.062;7.474;2022-07-06T04:12:56;15.00;99.90
42261;DHT22;27926;48.062;7.474;2022-07-06T04:15:21;15.00;99.90
42261;DHT22;27926;48.062;7.474;2022-07-06T04:17:45;15.10;99.90
42261;DHT22;27926;48.062;7.474;2022-07-06T04:20:16;15.20;99.90
42261;DHT22;27926;48.062;7.474;2022-07-06T04:22:40;15.20;99.90
42261;DHT22;27926;48.062;7.474;2022-07-06T04:25:05;15.30;99.90
42261;DHT22;27926;48.062;7.474;2022-07-06T04:27:30;15.30;99.90
42261;DHT22;27926;48.062;7.474;2022-07-06T04:29:55;15.40;99.90
42261;DHT22;27926;48.062;7.474;2022-07-06T04:32:19;15.50;99.90
42261;DHT22;27926;48.062;7.474;2022-07-06T04:34:44;14.80;99.90
42261;DHT22;27926;48.062;7.474;2022-07-06T04:37:08;15.80;99.90
42261;DHT22;27926;48.062;7.474;2022-07-06T04:39:33;16.50;99.90
42261;DHT22;27926;48.062;7.474;2022-07-06T04:41:58;17.40;99.90
42261;DHT22;27926;48.062;7.474;2022-07-06T04:44:22;18.30;99.90
42261;DHT22;27926;48.062;7.474;2022-07-06T04:46:47;19.00;99.90
42261;DHT22;27926;48.062;7.474;2022-07-06T04:49:11;19.90;99.90
42261;DHT22;27926;48.062;7.474;2022-07-06T04:51:36;20.80;99.80
42261;DHT22;27926;48.062;7.474;2022-07-06T04:54:01;21.80;99.20
42261;DHT22;27926;48.062;7.474;2022-07-06T04:56:25;22.60;98.40
42261;DHT22;27926;48.062;7.474;2022-07-06T04:58:50;23.10;97.50
42261;DHT22;27926;48.062;7.474;2022-07-06T05:01:15;23.80;96.70
42261;DHT22;27926;48.062;7.474;2022-07-06T05:03:39;24.50;96.20
42261;DHT22;27926;48.062;7.474;2022-07-06T05:06:06;25.00;95.00
42261;DHT22;27926;48.062;7.474;2022-07-06T05:08:30;25.20;93.40
42261;DHT22;27926;48.062;7.474;2022-07-06T05:10:55;25.20;92.60
42261;DHT22;27926;48.062;7.474;2022-07-06T05:13:20;25.40;91.70
42261;DHT22;27926;48.062;7.474;2022-07-06T05:15:45;25.40;91.80
42261;DHT22;27926;48.062;7.474;2022-07-06T05:18:09;25.40;91.70
42261;DHT22;27926;48.062;7.474;2022-07-06T05:20:34;25.40;91.70
42261;DHT22;27926;48.062;7.474;2022-07-06T05:22:59;25.50;91.60
42261;DHT22;27926;48.062;7.474;2022-07-06T05:25:23;25.70;91.90
42261;DHT22;27926;48.062;7.474;2022-07-06T05:27:48;25.90;91.40
42261;DHT22;27926;48.062;7.474;2022-07-06T05:30:13;25.50;91.20
42261;DHT22;27926;48.062;7.474;2022-07-06T05:32:39;25.40;91.70
42261;DHT22;27926;48.062;7.474;2022-07-06T05:35:05;24.90;91.60
42261;DHT22;27926;48.062;7.474;2022-07-06T05:37:29;24.80;92.30
42261;DHT22;27926;48.062;7.474;2022-07-06T05:39:54;24.60;92.20
42261;DHT22;27926;48.062;7.474;2022-07-06T05:42:18;24.60;91.90
42261;DHT22;27926;48.062;7.474;2022-07-06T05:44:43;24.50;91.60
42261;DHT22;27926;48.062;7.474;2022-07-06T05:47:08;24.40;91.60
42261;DHT22;27926;48.062;7.474;2022-07-06T05:49:51;24.10;91.90
42261;DHT22;27926;48.062;7.474;2022-07-06T05:52:34;24.20;92.60
42261;DHT22;27926;48.062;7.474;2022-07-06T05:54:58;24.00;92.20
42261;DHT22;27926;48.062;7.474;2022-07-06T05:57:23;23.70;92.90
42261;DHT22;27926;48.062;7.474;2022-07-06T05:59:48;23.60;93.00
42261;DHT22;27926;48.062;7.474;2022-07-06T06:02:12;23.10;93.70
42261;DHT22;27926;48.062;7.474;2022-07-06T06:04:37;22.90;93.50
42261;DHT22;27926;48.062;7.474;2022-07-06T06:07:01;22.90;94.10
42261;DHT22;27926;48.062;7.474;2022-07-06T06:09:26;23.10;93.70
42261;DHT22;27926;48.062;7.474;2022-07-06T06:11:51;22.90;93.80
42261;DHT22;27926;48.062;7.474;2022-07-06T06:14:15;23.00;94.10
42261;DHT22;27926;48.062;7.474;2022-07-06T06:16:40;23.30;93.70
42261;DHT22;27926;48.062;7.474;2022-07-06T06:19:04;23.30;93.50
42261;DHT22;27926;48.062;7.474;2022-07-06T06:21:29;23.10;93.20
42261;DHT22;27926;48.062;7.474;2022-07-06T06:23:53;23.10;93.60
42261;DHT22;27926;48.062;7.474;2022-07-06T06:26:18;22.90;94.20
42261;DHT22;27926;48.062;7.474;2022-07-06T06:28:44;22.90;93.90
42261;DHT22;27926;48.062;7.474;2022-07-06T06:31:09;23.10;94.10
42261;DHT22;27926;48.062;7.474;2022-07-06T06:33:33;23.00;93.90
42261;DHT22;27926;48.062;7.474;2022-07-06T06:35:58;23.50;93.80
42261;DHT22;27926;48.062;7.474;2022-07-06T06:38:23;23.40;93.00
42261;DHT22;27926;48.062;7.474;2022-07-06T06:40:51;23.00;92.80
42261;DHT22;27926;48.062;7.474;2022-07-06T06:43:15;22.80;93.80
42261;DHT22;27926;48.062;7.474;2022-07-06T06:45:40;22.90;93.90
42261;DHT22;27926;48.062;7.474;2022-07-06T06:48:05;23.00;93.00
42261;DHT22;27926;48.062;7.474;2022-07-06T06:50:29;22.60;93.30
42261;DHT22;27926;48.062;7.474;2022-07-06T06:52:54;22.80;93.50
42261;DHT22;27926;48.062;7.474;2022-07-06T06:55:19;22.70;92.80
42261;DHT22;27926;48.062;7.474;2022-07-06T06:57:44;22.80;92.90
42261;DHT22;27926;48.062;7.474;2022-07-06T07:00:09;22.80;93.10
42261;DHT22;27926;48.062;7.474;2022-07-06T07:02:34;23.10;93.60
42261;DHT22;27926;48.062;7.474;2022-07-06T07:04:59;23.00;93.30
42261;DHT22;27926;48.062;7.474;2022-07-06T07:07:23;22.70;93.20
42261;DHT22;27926;48.062;7.474;2022-07-06T07:09:48;22.30;93.40
42261;DHT22;27926;48.062;7.474;2022-07-06T07:12:13;22.40;94.10
42261;DHT22;27926;48.062;7.474;2022-07-06T07:14:39;22.40;93.60
42261;DHT22;27926;48.062;7.474;2022-07-06T07:17:04;22.40;94.80
42261;DHT22;27926;48.062;7.474;2022-07-06T07:19:28;22.50;94.00
42261;DHT22;27926;48.062;7.474;2022-07-06T07:21:53;22.80;93.90
42261;DHT22;27926;48.062;7.474;2022-07-06T07:24:17;22.90;93.60
42261;DHT22;27926;48.062;7.474;2022-07-06T07:26:42;22.60;93.40
42261;DHT22;27926;48.062;7.474;2022-07-06T07:29:07;22.60;94.20
42261;DHT22;27926;48.062;7.474;2022-07-06T07:31:31;22.50;93.60
42261;DHT22;27926;48.062;7.474;2022-07-06T07:33:56;22.40;93.60
42261;DHT22;27926;48.062;7.474;2022-07-06T07:36:23;22.20;94.20
42261;DHT22;27926;48.062;7.474;2022-07-06T07:38:48;22.40;94.80
42261;DHT22;27926;48.062;7.474;2022-07-06T07:41:13;22.40;94.10
42261;DHT22;27926;48.062;7.474;2022-07-06T07:43:38;22.70;94.00
42261;DHT22;27926;48.062;7.474;2022-07-06T07:46:02;22.50;93.40
42261;DHT22;27926;48.062;7.474;2022-07-06T07:48:27;22.60;94.10
42261;DHT22;27926;48.062;7.474;2022-07-06T07:50:52;22.40;94.00
42261;DHT22;27926;48.062;7.474;2022-07-06T07:53:17;22.30;94.70
42261;DHT22;27926;48.062;7.474;2022-07-06T07:55:42;22.30;93.80
42261;DHT22;27926;48.062;7.474;2022-07-06T07:58:06;22.20;93.80
42261;DHT22;27926;48.062;7.474;2022-07-06T08:00:31;22.10;94.10
42261;DHT22;27926;48.062;7.474;2022-07-06T08:02:56;22.10;94.40
42261;DHT22;27926;48.062;7.474;2022-07-06T08:05:21;22.20;94.80
42261;DHT22;27926;48.062;7.474;2022-07-06T08:07:46;22.30;94.40
42261;DHT22;27926;48.062;7.474;2022-07-06T08:10:11;22.30;94.50
42261;DHT22;27926;48.062;7.474;2022-07-06T08:12:36;22.50;93.80
42261;DHT22;27926;48.062;7.474;2022-07-06T08:15:01;22.70;94.10
42261;DHT22;27926;48.062;7.474;2022-07-06T08:17:29;22.50;93.70
42261;DHT22;27926;48.062;7.474;2022-07-06T08:19:54;22.50;93.50
42261;DHT22;27926;48.062;7.474;2022-07-06T08:22:18;22.70;94.10
42261;DHT22;27926;48.062;7.474;2022-07-06T08:24:43;22.70;93.70
42261;DHT22;27926;48.062;7.474;2022-07-06T08:27:07;22.60;93.80
42261;DHT22;27926;48.062;7.474;2022-07-06T08:29:32;22.70;94.20
42261;DHT22;27926;48.062;7.474;2022-07-06T08:31:57;22.80;93.90
42261;DHT22;27926;48.062;7.474;2022-07-06T08:34:22;23.00;93.30
42261;DHT22;27926;48.062;7.474;2022-07-06T08:36:47;22.90;93.40
42261;DHT22;27926;48.062;7.474;2022-07-06T08:39:12;23.00;93.40
42261;DHT22;27926;48.062;7.474;2022-07-06T08:41:38;23.10;93.30
42261;DHT22;27926;48.062;7.474;2022-07-06T08:44:05;23.20;93.50
42261;DHT22;27926;48.062;7.474;2022-07-06T08:46:30;23.30;93.60
42261;DHT22;27926;48.062;7.474;2022-07-06T08:48:56;23.20;92.60
42261;DHT22;27926;48.062;7.474;2022-07-06T08:51:22;23.40;93.60
42261;DHT22;27926;48.062;7.474;2022-07-06T08:53:49;23.40;92.80
42261;DHT22;27926;48.062;7.474;2022-07-06T08:56:14;23.20;93.10
42261;DHT22;27926;48.062;7.474;2022-07-06T08:58:38;23.30;93.30
42261;DHT22;27926;48.062;7.474;2022-07-06T09:01:05;23.30;93.10
42261;DHT22;27926;48.062;7.474;2022-07-06T09:03:30;23.40;94.00
42261;DHT22;27926;48.062;7.474;2022-07-06T09:05:59;23.40;92.80
42261;DHT22;27926;48.062;7.474;2022-07-06T09:08:26;23.50;93.00
42261;DHT22;27926;48.062;7.474;2022-07-06T09:10:51;23.50;93.50
42261;DHT22;27926;48.062;7.474;2022-07-06T09:13:16;23.50;92.80
42261;DHT22;27926;48.062;7.474;2022-07-06T09:15:40;23.50;93.30
42261;DHT22;27926;48.062;7.474;2022-07-06T09:18:05;23.60;93.50
42261;DHT22;27926;48.062;7.474;2022-07-06T09:20:31;23.60;93.00
42261;DHT22;27926;48.062;7.474;2022-07-06T09:23:00;23.40;94.10
42261;DHT22;27926;48.062;7.474;2022-07-06T09:25:25;23.30;92.90
42261;DHT22;27926;48.062;7.474;2022-07-06T09:27:51;23.40;93.10
42261;DHT22;27926;48.062;7.474;2022-07-06T09:30:18;23.50;93.10
42261;DHT22;27926;48.062;7.474;2022-07-06T09:32:45;23.50;92.60
42261;DHT22;27926;48.062;7.474;2022-07-06T09:35:24;23.80;92.90
42261;DHT22;27926;48.062;7.474;2022-07-06T09:38:05;23.90;92.50
42261;DHT22;27926;48.062;7.474;2022-07-06T09:40:32;24.10;92.20
42261;DHT22;27926;48.062;7.474;2022-07-06T09:43:18;23.90;92.30
42261;DHT22;27926;48.062;7.474;2022-07-06T09:45:48;24.00;93.00
42261;DHT22;27926;48.062;7.474;2022-07-06T09:48:18;24.10;92.50
42261;DHT22;27926;48.062;7.474;2022-07-06T09:51:01;24.10;92.00
42261;DHT22;27926;48.062;7.474;2022-07-06T09:53:31;24.10;91.60
42261;DHT22;27926;48.062;7.474;2022-07-06T09:55:57;24.00;91.80
42261;DHT22;27926;48.062;7.474;2022-07-06T09:58:26;24.00;91.90
42261;DHT22;27926;48.062;7.474;2022-07-06T10:00:50;24.10;91.70
42261;DHT22;27926;48.062;7.474;2022-07-06T10:03:17;24.10;91.90
42261;DHT22;27926;48.062;7.474;2022-07-06T10:05:44;24.20;92.60
42261;DHT22;27926;48.062;7.474;2022-07-06T10:08:10;24.20;91.80
42261;DHT22;27926;48.062;7.474;2022-07-06T10:10:36;24.10;91.90
42261;DHT22;27926;48.062;7.474;2022-07-06T10:13:01;24.30;92.40
42261;DHT22;27926;48.062;7.474;2022-07-06T10:15:28;24.40;92.40
42261;DHT22;27926;48.062;7.474;2022-07-06T10:17:56;24.40;92.90
42261;DHT22;27926;48.062;7.474;2022-07-06T10:20:21;24.30;91.50
42261;DHT22;27926;48.062;7.474;2022-07-06T10:22:50;24.30;91.80
42261;DHT22;27926;48.062;7.474;2022-07-06T10:25:18;24.50;91.80
42261;DHT22;27926;48.062;7.474;2022-07-06T10:27:43;24.40;91.40
42261;DHT22;27926;48.062;7.474;2022-07-06T10:30:09;24.30;92.30
42261;DHT22;27926;48.062;7.474;2022-07-06T10:32:35;24.50;92.10
42261;DHT22;27926;48.062;7.474;2022-07-06T10:35:01;24.40;92.90
42261;DHT22;27926;48.062;7.474;2022-07-06T10:37:27;24.40;90.90
42261;DHT22;27926;48.062;7.474;2022-07-06T10:39:52;24.20;90.80
42261;DHT22;27926;48.062;7.474;2022-07-06T10:43:02;24.30;91.40
42261;DHT22;27926;48.062;7.474;2022-07-06T10:50:35;24.50;91.60
42261;DHT22;27926;48.062;7.474;2022-07-06T10:52:59;24.50;91.40
42261;DHT22;27926;48.062;7.474;2022-07-06T10:55:29;24.70;92.00
42261;DHT22;27926;48.062;7.474;2022-07-06T10:57:57;24.70;92.00
42261;DHT22;27926;48.062;7.474;2022-07-06T11:00:21;24.80;90.90
42261;DHT22;27926;48.062;7.474;2022-07-06T11:02:46;24.80;91.40
42261;DHT22;27926;48.062;7.474;2022-07-06T11:05:11;24.80;92.10
42261;DHT22;27926;48.062;7.474;2022-07-06T11:07:51;25.00;92.10
42261;DHT22;27926;48.062;7.474;2022-07-06T11:10:16;25.20;91.20
42261;DHT22;27926;48.062;7.474;2022-07-06T11:12:44;25.00;91.50
42261;DHT22;27926;48.062;7.474;2022-07-06T11:15:09;25.10;91.30
42261;DHT22;27926;48.062;7.474;2022-07-06T11:17:34;25.10;91.90
42261;DHT22;27926;48.062;7.474;2022-07-06T11:20:09;25.20;91.10
42261;DHT22;27926;48.062;7.474;2022-07-06T11:22:36;25.10;91.00
42261;DHT22;27926;48.062;7.474;2022-07-06T11:25:01;24.90;91.10
42261;DHT22;27926;48.062;7.474;2022-07-06T11:27:26;25.00;91.10
42261;DHT22;27926;48.062;7.474;2022-07-06T11:29:50;24.90;90.80
42261;DHT22;27926;48.062;7.474;2022-07-06T11:32:23;24.90;90.90
42261;DHT22;27926;48.062;7.474;2022-07-06T11:34:48;24.90;91.00
42261;DHT22;27926;48.062;7.474;2022-07-06T11:37:14;25.10;91.20
42261;DHT22;27926;48.062;7.474;2022-07-06T11:39:43;25.80;91.60
42261;DHT22;27926;48.062;7.474;2022-07-06T11:42:10;25.00;91.50
42261;DHT22;27926;48.062;7.474;2022-07-06T11:44:35;25.00;91.40
42261;DHT22;27926;48.062;7.474;2022-07-06T11:47:00;24.80;90.10
42261;DHT22;27926;48.062;7.474;2022-07-06T11:49:26;24.90;91.00
42261;DHT22;27926;48.062;7.474;2022-07-06T11:51:51;25.10;91.40
42261;DHT22;27926;48.062;7.474;2022-07-06T11:54:18;25.10;91.40
42261;DHT22;27926;48.062;7.474;2022-07-06T11:56:54;25.10;91.90
42261;DHT22;27926;48.062;7.474;2022-07-06T11:59:27;25.10;91.30
42261;DHT22;27926;48.062;7.474;2022-07-06T12:02:06;25.10;90.90
42261;DHT22;27926;48.062;7.474;2022-07-06T12:04:32;25.30;91.60
42261;DHT22;27926;48.062;7.474;2022-07-06T12:07:05;25.40;90.70
42261;DHT22;27926;48.062;7.474;2022-07-06T12:09:32;25.40;91.80
42261;DHT22;27926;48.062;7.474;2022-07-06T12:11:57;25.40;91.00
42261;DHT22;27926;48.062;7.474;2022-07-06T12:14:22;25.40;90.50
42261;DHT22;27926;48.062;7.474;2022-07-06T12:16:49;25.40;90.80
42261;DHT22;27926;48.062;7.474;2022-07-06T12:19:14;25.50;90.90
42261;DHT22;27926;48.062;7.474;2022-07-06T12:21:49;25.40;91.20
42261;DHT22;27926;48.062;7.474;2022-07-06T12:24:22;25.40;90.40
42261;DHT22;27926;48.062;7.474;2022-07-06T12:26:48;25.50;91.70
42261;DHT22;27926;48.062;7.474;2022-07-06T12:29:14;25.30;90.50
42261;DHT22;27926;48.062;7.474;2022-07-06T12:34:20;25.30;92.00
42261;DHT22;27926;48.062;7.474;2022-07-06T12:36:56;25.30;90.40
42261;DHT22;27926;48.062;7.474;2022-07-06T12:39:23;25.10;91.00
42261;DHT22;27926;48.062;7.474;2022-07-06T12:41:52;25.10;91.60
42261;DHT22;27926;48.062;7.474;2022-07-06T12:44:22;25.00;90.20
42261;DHT22;27926;48.062;7.474;2022-07-06T12:46:47;25.00;90.80
42261;DHT22;27926;48.062;7.474;2022-07-06T12:49:21;25.20;90.50
42261;DHT22;27926;48.062;7.474;2022-07-06T12:52:11;25.40;91.80
42261;DHT22;27926;48.062;7.474;2022-07-06T12:54:47;25.70;92.30
42261;DHT22;27926;48.062;7.474;2022-07-06T12:57:17;25.50;90.60
42261;DHT22;27926;48.062;7.474;2022-07-06T12:59:55;25.40;91.20
42261;DHT22;27926;48.062;7.474;2022-07-06T13:02:31;25.30;91.10
42261;DHT22;27926;48.062;7.474;2022-07-06T13:05:00;25.10;90.00
42261;DHT22;27926;48.062;7.474;2022-07-06T13:07:27;25.20;90.30
42261;DHT22;27926;48.062;7.474;2022-07-06T13:09:53;25.20;91.30
42261;DHT22;27926;48.062;7.474;2022-07-06T13:12:19;25.30;92.10
42261;DHT22;27926;48.062;7.474;2022-07-06T13:14:43;25.50;90.90
42261;DHT22;27926;48.062;7.474;2022-07-06T13:17:08;25.50;91.60
42261;DHT22;27926;48.062;7.474;2022-07-06T13:19:32;25.50;90.60
42261;DHT22;27926;48.062;7.474;2022-07-06T13:21:57;25.50;91.00
42261;DHT22;27926;48.062;7.474;2022-07-06T13:24:22;25.70;91.40
42261;DHT22;27926;48.062;7.474;2022-07-06T13:26:46;25.60;90.20
42261;DHT22;27926;48.062;7.474;2022-07-06T13:29:11;25.70;90.60
42261;DHT22;27926;48.062;7.474;2022-07-06T13:31:37;25.60;90.00
42261;DHT22;27926;48.062;7.474;2022-07-06T13:34:01;25.70;90.00
42261;DHT22;27926;48.062;7.474;2022-07-06T13:36:26;25.70;91.70
42261;DHT22;27926;48.062;7.474;2022-07-06T13:38:51;25.50;90.60
42261;DHT22;27926;48.062;7.474;2022-07-06T13:41:15;25.30;91.80
42261;DHT22;27926;48.062;7.474;2022-07-06T13:43:40;25.30;90.20
42261;DHT22;27926;48.062;7.474;2022-07-06T13:46:06;25.30;91.30
42261;DHT22;27926;48.062;7.474;2022-07-06T13:48:31;25.40;90.10
42261;DHT22;27926;48.062;7.474;2022-07-06T13:50:56;25.60;90.90
42261;DHT22;27926;48.062;7.474;2022-07-06T13:53:21;25.40;90.70
42261;DHT22;27926;48.062;7.474;2022-07-06T13:55:46;25.30;91.00
42261;DHT22;27926;48.062;7.474;2022-07-06T13:58:11;25.40;90.70
42261;DHT22;27926;48.062;7.474;2022-07-06T14:00:35;25.40;90.70
42261;DHT22;27926;48.062;7.474;2022-07-06T14:03:00;25.30;90.70
42261;DHT22;27926;48.062;7.474;2022-07-06T14:05:28;25.20;92.30
42261;DHT22;27926;48.062;7.474;2022-07-06T14:07:52;25.10;90.80
42261;DHT22;27926;48.062;7.474;2022-07-06T14:10:17;25.10;91.10
42261;DHT22;27926;48.062;7.474;2022-07-06T14:12:42;25.20;90.70
42261;DHT22;27926;48.062;7.474;2022-07-06T14:15:07;25.30;91.20
42261;DHT22;27926;48.062;7.474;2022-07-06T14:17:32;25.40;91.60
42261;DHT22;27926;48.062;7.474;2022-07-06T14:19:56;25.40;91.20
42261;DHT22;27926;48.062;7.474;2022-07-06T14:22:21;25.40;90.70
42261;DHT22;27926;48.062;7.474;2022-07-06T14:24:45;25.50;90.70
42261;DHT22;27926;48.062;7.474;2022-07-06T14:27:10;25.70;91.10
42261;DHT22;27926;48.062;7.474;2022-07-06T14:29:35;25.70;90.70
42261;DHT22;27926;48.062;7.474;2022-07-06T14:31:59;25.70;90.10
42261;DHT22;27926;48.062;7.474;2022-07-06T14:34:24;25.70;90.00
42261;DHT22;27926;48.062;7.474;2022-07-06T14:36:49;25.50;90.60
42261;DHT22;27926;48.062;7.474;2022-07-06T14:39:13;25.40;91.20
42261;DHT22;27926;48.062;7.474;2022-07-06T14:41:38;25.40;90.60
42261;DHT22;27926;48.062;7.474;2022-07-06T14:44:03;25.40;90.80
42261;DHT22;27926;48.062;7.474;2022-07-06T14:46:29;25.50;90.60
42261;DHT22;27926;48.062;7.474;2022-07-06T14:48:53;25.30;89.00
42261;DHT22;27926;48.062;7.474;2022-07-06T14:51:18;25.50;90.00
42261;DHT22;27926;48.062;7.474;2022-07-06T14:53:42;25.50;90.40
42261;DHT22;27926;48.062;7.474;2022-07-06T14:56:07;25.60;90.50
42261;DHT22;27926;48.062;7.474;2022-07-06T14:58:32;25.70;89.80
42261;DHT22;27926;48.062;7.474;2022-07-06T15:00:57;25.80;89.20
42261;DHT22;27926;48.062;7.474;2022-07-06T15:03:22;26.00;90.90
42261;DHT22;27926;48.062;7.474;2022-07-06T15:05:47;26.00;89.90
42261;DHT22;27926;48.062;7.474;2022-07-06T15:08:13;26.00;89.90
42261;DHT22;27926;48.062;7.474;2022-07-06T15:10:39;26.00;88.60
42261;DHT22;27926;48.062;7.474;2022-07-06T15:13:03;26.00;89.70
42261;DHT22;27926;48.062;7.474;2022-07-06T15:15:29;25.90;89.30
42261;DHT22;27926;48.062;7.474;2022-07-06T15:17:53;25.90;88.30
42261;DHT22;27926;48.062;7.474;2022-07-06T15:20:18;25.80;87.90
42261;DHT22;27926;48.062;7.474;2022-07-06T15:22:44;25.70;89.00
42261;DHT22;27926;48.062;7.474;2022-07-06T15:25:09;25.60;88.70
42261;DHT22;27926;48.062;7.474;2022-07-06T15:27:34;25.50;89.50
42261;DHT22;27926;48.062;7.474;2022-07-06T15:29:59;25.30;89.20